Time;durP1;ratioP1;P1;durP2;ratioP2;P2;SDS_P1;SDS_P2;PMS_P1;PMS_P2;Temp;Humidity;BMP_temperature;BMP_pressure;BME280_temperature;BME280_humidity;BME280_pressure;Samples;Min_cycle;Max_cycle;Signal;HPM_P1;HPM_P2
2022/01/20 00:04:52;;;;;;;14.97;6.63;;;;;;;2.27;100.00;99827.23;5121821;57;1134679;-72
2022/01/20 00:20:39;;;;;;;13.20;7.17;;;;;;;2.28;100.00;99821.09;5113265;57;1137025;-71
2022/01/20 00:41:15;;;;;;;11.10;7.13;;;;;;;2.22;100.00;99811.82;5123983;57;1135140;-71
2022/01/20 00:46:21;;;;;;;9.23;7.25;;;;;;;2.24;100.00;99803.91;5124302;57;1134851;-74
2022/01/20 00:51:27;;;;;;;11.20;7.90;;;;;;;2.26;100.00;99813.34;5124315;57;1132751;-78
2022/01/20 00:56:32;;;;;;;19.87;10.07;;;;;;;2.26;100.00;99804.67;5039399;57;1135205;-77
2022/01/20 01:01:38;;;;;;;16.23;11.15;;;;;;;2.29;100.00;99801.91;5122303;57;1134965;-81
2022/01/20 01:07:13;;;;;;;8.53;5.83;;;;;;;2.32;100.00;99793.42;5121327;57;1258106;-79
2022/01/20 01:12:04;;;;;;;17.40;6.57;;;;;;;2.33;100.00;99795.56;5124082;57;1135181;-71
2022/01/20 01:27:29;;;;;;;15.63;8.63;;;;;;;2.39;100.00;99796.55;5132805;57;1137114;-81
2022/01/20 01:32:45;;;;;;;15.30;8.83;;;;;;;2.41;100.00;99786.41;5132815;57;1137029;-77
2022/01/20 01:42:49;;;;;;;9.23;5.90;;;;;;;2.45;100.00;99780.06;5132673;57;1136966;-78
2022/01/20 01:47:54;;;;;;;8.43;4.47;;;;;;;2.46;100.00;99775.69;5132779;57;1135153;-75
2022/01/20 01:53:06;;;;;;;3.77;2.17;;;;;;;2.46;100.00;99759.56;5119742;57;1135098;-78
2022/01/20 01:58:11;;;;;;;5.63;2.10;;;;;;;2.38;100.00;99752.65;5081198;57;1134950;-83
2022/01/20 02:03:18;;;;;;;3.63;2.03;;;;;;;2.21;100.00;99759.73;5075951;57;1134980;-77
2022/01/20 02:08:39;;;;;;;4.53;3.00;;;;;;;2.02;100.00;99748.16;5069948;57;1135085;-70
2022/01/20 02:19:04;;;;;;;8.10;5.10;;;;;;;1.93;100.00;99744.76;5065264;57;1135104;-80
2022/01/20 02:24:15;;;;;;;13.20;7.57;;;;;;;1.94;100.00;99723.81;5071216;58;1134858;-79
2022/01/20 02:29:21;;;;;;;3.03;1.87;;;;;;;2.07;100.00;99721.38;5072139;57;1136943;-79
2022/01/20 02:34:30;;;;;;;0.60;0.47;;;;;;;2.04;100.00;99782.82;5072216;56;1134831;-72
2022/01/20 02:49:57;;;;;;;13.87;1.60;;;;;;;1.20;100.00;99778.16;5072226;57;1135150;-73
2022/01/20 02:55:03;;;;;;;8.17;1.83;;;;;;;1.29;100.00;99763.34;5024199;58;1137174;-74
2022/01/20 03:00:10;;;;;;;9.40;1.77;;;;;;;1.43;100.00;99769.14;4949671;58;1135085;-71
2022/01/20 03:05:16;;;;;;;10.17;0.90;;;;;;;1.48;100.00;99752.81;4916719;59;1134947;-78
2022/01/20 03:10:23;;;;;;;5.07;1.80;;;;;;;1.49;100.00;99759.72;4916546;59;1136893;-81
2022/01/20 03:15:29;;;;;;;5.10;1.57;;;;;;;1.50;100.00;99755.34;4916670;59;1134990;-72
2022/01/20 03:20:35;;;;;;;5.60;1.12;;;;;;;1.47;100.00;99760.71;4999644;58;1132919;-83
2022/01/20 03:25:41;;;;;;;2.13;0.90;;;;;;;1.42;100.00;99754.42;5002415;58;1133273;-79
2022/01/20 03:30:46;;;;;;;6.03;1.17;;;;;;;1.37;100.00;99739.52;5024969;58;1132959;-78
2022/01/20 03:35:53;;;;;;;10.37;1.10;;;;;;;1.33;100.00;99743.20;5039076;58;1132864;-68
2022/01/20 03:41:17;;;;;;;14.37;1.97;;;;;;;1.38;100.00;99759.41;5039101;58;1134846;-78
2022/01/20 03:46:23;;;;;;;3.30;1.60;;;;;;;1.45;100.00;99762.09;5039660;58;1134853;-77
2022/01/20 03:51:29;;;;;;;15.87;1.93;;;;;;;1.52;100.00;99760.86;5039091;58;1132958;-79
2022/01/20 03:56:35;;;;;;;11.20;1.90;;;;;;;1.54;100.00;99748.56;5192215;56;1134955;-75
2022/01/20 04:01:50;;;;;;;7.55;1.52;;;;;;;1.55;100.00;99742.89;5202579;56;1134950;-76
2022/01/20 04:07:00;;;;;;;13.13;1.97;;;;;;;1.51;100.00;99740.94;5206723;56;1132934;-74
2022/01/20 04:12:07;;;;;;;7.33;1.17;;;;;;;1.47;100.00;99729.44;5208269;56;1135133;-73
2022/01/20 04:17:18;;;;;;;4.53;1.13;;;;;;;1.48;100.00;99751.52;5218224;56;1130828;-79
2022/01/20 04:22:24;;;;;;;3.70;0.80;;;;;;;1.45;100.00;99741.70;5219231;56;1130786;-78
2022/01/20 04:27:29;;;;;;;9.53;1.57;;;;;;;1.43;100.00;99727.91;5213582;56;1134988;-76
2022/01/20 04:32:35;;;;;;;9.37;1.80;;;;;;;1.48;100.00;99722.01;5217594;56;1135086;-75
2022/01/20 04:37:41;;;;;;;8.83;1.60;;;;;;;1.47;98.55;99711.20;5209814;56;1135032;-75
2022/01/20 04:42:48;;;;;;;4.47;1.30;;;;;;;1.46;99.83;99714.27;5213029;56;1132914;-80
2022/01/20 04:58:28;;;;;;;5.23;0.93;;;;;;;1.48;98.55;99682.47;4989461;58;1134955;-77
2022/01/20 05:03:35;;;;;;;14.97;2.27;;;;;;;1.46;98.61;99694.73;4988978;58;1132947;-72
2022/01/20 05:08:42;;;;;;;12.73;1.43;;;;;;;1.46;98.66;99679.09;4988415;58;1134852;-70
2022/01/20 05:13:48;;;;;;;5.77;1.37;;;;;;;1.47;98.46;99653.42;4989553;58;1134999;-70
2022/01/20 05:18:54;;;;;;;5.72;1.00;;;;;;;1.46;98.69;99657.41;4999044;58;1132769;-77
2022/01/20 05:24:00;;;;;;;7.13;1.60;;;;;;;1.45;99.32;99657.87;5008617;58;1133116;-80
2022/01/20 05:29:06;;;;;;;4.93;1.43;;;;;;;1.47;100.00;99652.58;5031369;57;1132806;-75
2022/01/20 05:34:12;;;;;;;17.52;1.90;;;;;;;1.47;100.00;99658.64;4997573;58;1134960;-80
2022/01/20 05:39:19;;;;;;;13.20;2.13;;;;;;;1.50;100.00;99677.17;4995792;58;1137324;-82
2022/01/20 05:44:26;;;;;;;1.10;1.00;;;;;;;1.29;100.00;99736.45;4986853;58;1137015;-81
2022/01/20 05:49:31;;;;;;;17.50;2.33;;;;;;;0.60;100.00;99747.77;4990875;58;1135161;-73
2022/01/20 05:54:39;;;;;;;10.97;2.07;;;;;;;0.18;100.00;99721.21;5016925;58;1137189;-71
2022/01/20 05:59:45;;;;;;;0.50;0.50;;;;;;;0.17;100.00;99728.63;5050545;57;1137208;-70
2022/01/20 06:04:50;;;;;;;0.83;0.83;;;;;;;0.31;100.00;99726.20;5080121;57;1135180;-75
2022/01/20 06:09:56;;;;;;;4.97;0.90;;;;;;;0.41;100.00;99741.77;5075009;57;1134839;-70
2022/01/20 06:15:02;;;;;;;7.90;1.03;;;;;;;0.44;98.98;99753.80;5050601;57;1134835;-73
2022/01/20 06:20:10;;;;;;;1.27;0.77;;;;;;;0.46;98.01;99741.06;5051587;57;1132694;-77
2022/01/20 06:25:17;;;;;;;7.60;1.47;;;;;;;0.43;94.76;99712.63;5073314;57;1132867;-69
2022/01/20 06:30:25;;;;;;;2.70;0.90;;;;;;;0.41;93.98;99711.02;5128565;56;1132719;-72
2022/01/20 06:35:32;;;;;;;1.50;0.87;;;;;;;0.41;93.88;99724.02;5104991;57;1132804;-76
2022/01/20 06:40:38;;;;;;;1.13;0.77;;;;;;;0.37;92.45;99719.42;5077436;57;1132805;-78
2022/01/20 06:45:44;;;;;;;3.00;0.70;;;;;;;0.37;90.69;99731.12;5071645;58;1132765;-72
2022/01/20 06:50:52;;;;;;;0.93;0.50;;;;;;;0.38;89.64;99728.91;5084824;57;1133013;-68
2022/01/20 06:55:58;;;;;;;5.77;1.03;;;;;;;0.39;89.65;99722.79;5086741;57;1133026;-75
2022/01/20 07:01:05;;;;;;;4.43;2.13;;;;;;;0.42;88.86;99731.75;5103887;57;1132874;-75
2022/01/20 07:06:10;;;;;;;7.47;1.47;;;;;;;0.44;89.42;99736.42;5029725;57;1132804;-78
2022/01/20 07:11:18;;;;;;;4.37;1.13;;;;;;;0.43;86.69;99726.09;4916174;59;1132925;-73
2022/01/20 07:16:23;;;;;;;5.87;1.30;;;;;;;0.44;86.96;99719.98;4832011;60;1130824;-74
2022/01/20 07:21:29;;;;;;;8.03;2.70;;;;;;;0.46;86.30;99724.16;4897463;59;1130733;-74
2022/01/20 07:26:37;;;;;;;1.93;1.07;;;;;;;0.47;85.10;99715.44;5131997;57;1130706;-72
2022/01/20 07:31:45;;;;;;;5.27;1.10;;;;;;;0.50;85.60;99720.50;4996295;58;1130808;-70
2022/01/20 07:36:51;;;;;;;13.60;2.30;;;;;;;0.52;85.12;99744.69;4986310;58;1130708;-74
2022/01/20 07:41:57;;;;;;;1.90;1.17;;;;;;;0.56;86.17;99802.63;5117338;57;1133027;-69
2022/01/20 07:47:13;;;;;;;5.50;1.80;;;;;;;0.00;100.00;99817.34;5103185;57;1130690;-72
2022/01/20 07:52:19;;;;;;;4.80;1.97;;;;;;;-0.64;100.00;99796.45;5085588;57;1132853;-75
2022/01/20 07:57:25;;;;;;;6.67;2.53;;;;;;;-0.92;100.00;99781.23;5123873;57;1134900;-71
2022/01/20 08:02:32;;;;;;;8.90;2.50;;;;;;;-0.98;100.00;99795.75;5131886;57;1134899;-73
2022/01/20 08:07:39;;;;;;;10.77;3.10;;;;;;;-0.94;100.00;99801.20;5125591;57;1134875;-68
2022/01/20 08:12:45;;;;;;;6.13;2.63;;;;;;;-0.87;100.00;99800.87;5131630;56;1136949;-78
2022/01/20 08:17:58;;;;;;;2.98;1.70;;;;;;;-0.75;100.00;99812.02;5083291;56;1134883;-72
2022/01/20 08:23:04;;;;;;;4.10;1.70;;;;;;;-0.66;100.00;99813.41;5063106;57;1132872;-76
2022/01/20 08:28:11;;;;;;;6.90;2.13;;;;;;;-0.59;98.91;99822.59;5126898;57;1132852;-77
2022/01/20 08:33:18;;;;;;;7.43;2.83;;;;;;;-0.49;96.96;99826.95;5104804;57;1134999;-75
2022/01/20 08:38:29;;;;;;;12.15;7.10;;;;;;;-0.43;96.67;99839.20;5074806;57;1134817;-76
2022/01/20 08:43:38;;;;;;;17.20;9.57;;;;;;;-0.35;94.51;99845.38;5113482;57;1136919;-76
2022/01/20 08:48:43;;;;;;;9.80;2.77;;;;;;;-0.30;92.58;99837.36;5088529;57;1137371;-77
2022/01/20 08:53:56;;;;;;;11.90;5.70;;;;;;;-0.31;91.48;99838.30;5074445;57;1135301;-75
2022/01/20 08:59:09;;;;;;;16.07;5.77;;;;;;;-0.35;91.61;99833.69;5116407;57;1136982;-75
2022/01/20 09:04:15;;;;;;;14.97;4.53;;;;;;;-0.32;92.48;99840.06;5111667;57;1136964;-76
2022/01/20 09:09:22;;;;;;;15.27;6.67;;;;;;;-0.27;91.95;99828.98;5108053;57;1136970;-75
2022/01/20 09:19:52;;;;;;;6.47;2.70;;;;;;;-0.06;91.08;99834.53;5113414;57;1137047;-76
2022/01/20 09:24:58;;;;;;;22.07;8.77;;;;;;;-0.03;90.33;99842.20;5075937;57;1135199;-77
2022/01/20 09:30:06;;;;;;;15.37;7.47;;;;;;;-0.01;89.59;99848.63;4995745;58;1136994;-76
2022/01/20 09:35:12;;;;;;;2.70;1.47;;;;;;;0.06;90.57;99860.88;5061952;56;1136957;-77
2022/01/20 09:40:18;;;;;;;11.63;4.60;;;;;;;0.09;90.13;99875.89;5078376;57;1132793;-77
2022/01/20 09:45:26;;;;;;;9.85;3.87;;;;;;;0.05;90.82;99882.59;4997020;58;1135044;-76
2022/01/20 09:50:32;;;;;;;8.97;0.83;;;;;;;0.00;90.64;99884.93;4997194;58;1133056;-76
2022/01/20 09:55:40;;;;;;;3.08;1.45;;;;;;;-0.02;91.04;99870.34;5065599;57;1133058;-76
2022/01/20 10:00:48;;;;;;;4.73;2.07;;;;;;;0.02;90.91;99882.27;5044843;58;1135262;-76
2022/01/20 10:05:55;;;;;;;6.33;0.90;;;;;;;0.06;91.03;99867.38;5080736;57;1132963;-76
2022/01/20 10:11:06;;;;;;;17.17;4.27;;;;;;;-0.01;90.28;99872.03;5092321;57;1132843;-76
2022/01/20 10:16:32;;;;;;;8.40;1.45;;;;;;;-0.03;90.85;99874.70;5062985;57;1137003;-76
2022/01/20 10:21:40;;;;;;;9.40;2.70;;;;;;;-0.03;89.33;99870.80;5112960;56;1135107;-77
2022/01/20 10:26:53;;;;;;;19.17;1.23;;;;;;;0.03;89.53;99867.52;5077547;57;1135104;-75
2022/01/20 10:32:00;;;;;;;7.33;1.23;;;;;;;0.09;88.32;99866.80;5050505;57;1132881;-76
2022/01/20 10:37:16;;;;;;;7.40;2.00;;;;;;;0.29;87.05;99854.20;5050239;57;1130907;-75
2022/01/20 10:42:26;;;;;;;5.50;1.80;;;;;;;0.34;84.24;99833.54;5048963;57;1130689;-77
2022/01/20 10:47:36;;;;;;;9.63;2.98;;;;;;;0.27;84.37;99855.56;5043672;57;1130713;-75
2022/01/20 10:52:44;;;;;;;21.33;5.30;;;;;;;0.22;86.91;99857.52;5039787;57;1131112;-77
2022/01/20 10:57:57;;;;;;;4.60;2.03;;;;;;;0.17;86.78;99868.58;5039540;58;1132873;-76
2022/01/20 11:03:04;;;;;;;11.20;2.17;;;;;;;0.03;88.65;99859.26;5038991;58;1130740;-75
2022/01/20 11:08:10;;;;;;;3.87;1.33;;;;;;;-0.03;91.43;99863.45;5039310;58;1133163;-76
2022/01/20 11:13:20;;;;;;;14.47;2.40;;;;;;;-0.09;93.85;99863.71;5046017;57;1133121;-76
2022/01/20 11:18:31;;;;;;;2.17;1.07;;;;;;;-0.18;97.40;99868.88;5071467;57;1135145;-77
2022/01/20 11:23:43;;;;;;;8.90;1.40;;;;;;;-0.60;100.00;99881.09;5144430;56;1133006;-76
2022/01/20 11:29:06;;;;;;;2.42;1.42;;;;;;;-0.95;100.00;99887.31;5178284;56;1136857;-76
2022/01/20 11:34:32;;;;;;;10.57;2.40;;;;;;;-1.24;100.00;99866.43;5134301;56;1136978;-76
2022/01/20 11:39:39;;;;;;;6.87;3.17;;;;;;;-1.31;100.00;99888.77;5105797;57;1139030;-76
2022/01/20 11:44:44;;;;;;;23.33;6.77;;;;;;;-1.33;100.00;99904.84;5101938;57;1136910;-75
2022/01/20 11:49:50;;;;;;;24.77;9.83;;;;;;;-1.36;100.00;99888.09;5105267;57;1139078;-75
2022/01/20 11:54:56;;;;;;;42.10;14.50;;;;;;;-1.34;100.00;99883.24;5105318;58;1138548;-77
2022/01/20 12:00:06;;;;;;;11.57;2.97;;;;;;;-1.25;100.00;99897.17;5105500;58;1141135;-77
2022/01/20 12:05:28;;;;;;;14.75;3.77;;;;;;;-1.16;100.00;99875.19;5105376;56;1139052;-76
2022/01/20 12:10:45;;;;;;;7.47;2.97;;;;;;;-1.13;100.00;99864.69;5106196;57;1139071;-75
2022/01/20 12:15:57;;;;;;;13.23;3.73;;;;;;;-1.06;100.00;99870.85;5098899;57;1136988;-79
2022/01/20 12:21:08;;;;;;;6.10;2.25;;;;;;;-0.98;100.00;99885.28;5119706;57;1138935;-78
2022/01/20 12:26:11;;;;;;;11.53;2.17;;;;;;;-0.99;100.00;99877.95;5109931;57;1137112;-77
2022/01/20 12:31:18;;;;;;;5.87;2.23;;;;;;;-1.04;100.00;99892.01;5078243;57;1139034;-79
2022/01/20 12:36:24;;;;;;;7.83;2.00;;;;;;;-1.08;100.00;99886.13;5084566;57;1137014;-75
2022/01/20 12:41:30;;;;;;;20.73;3.80;;;;;;;-0.98;100.00;99873.61;5107510;57;1136977;-78
2022/01/20 12:46:40;;;;;;;10.98;2.50;;;;;;;-0.98;100.00;99873.61;5118802;57;1139041;-75
2022/01/20 12:51:54;;;;;;;23.60;8.30;;;;;;;-0.88;100.00;99882.70;5111364;57;1139199;-75
2022/01/20 12:57:02;;;;;;;;;;;;;;;-0.78;100.00;99877.09;5091955;57;1139049;-75
2022/01/20 13:02:28;;;;;;;18.90;5.40;;;;;;;-0.68;100.00;99886.63;5068496;57;974476;-74
2022/01/20 13:07:37;;;;;;;13.40;6.37;;;;;;;-0.60;100.00;99880.64;5113098;57;1134863;-76
2022/01/20 13:12:43;;;;;;;18.00;6.20;;;;;;;-0.52;100.00;99878.58;5130837;57;1137186;-75
2022/01/20 13:17:49;;;;;;;16.30;3.87;;;;;;;-0.44;100.00;99896.42;5099266;57;1136416;-75
2022/01/20 13:23:09;;;;;;;12.93;4.03;;;;;;;-0.26;100.00;99903.42;5084735;57;1136993;-76
2022/01/20 13:28:14;;;;;;;10.60;3.43;;;;;;;0.21;100.00;99911.73;5084883;57;1136944;-77
2022/01/20 13:33:25;;;;;;;14.13;4.67;;;;;;;1.26;98.83;99900.70;5135570;57;1134870;-75
2022/01/20 13:38:41;;;;;;;24.60;5.63;;;;;;;1.92;93.00;99910.80;5055503;56;1132992;-77
2022/01/20 13:49:19;;;;;;;8.33;3.40;;;;;;;2.99;84.44;99935.89;5100614;56;1130955;-75
2022/01/20 13:54:26;;;;;;;12.50;4.20;;;;;;;3.09;78.27;99933.59;5084007;57;1132772;-76
2022/01/20 13:59:32;;;;;;;4.43;1.93;;;;;;;3.28;75.87;99925.09;5047244;58;1134869;-77
2022/01/20 14:04:38;;;;;;;7.03;2.43;;;;;;;2.48;73.70;99922.60;5052963;58;1132747;-75
2022/01/20 14:09:44;;;;;;;10.50;2.77;;;;;;;1.67;76.20;99933.38;5052914;58;1132962;-75
2022/01/20 14:14:50;;;;;;;3.62;1.12;;;;;;;1.13;77.44;99937.39;5052531;58;1134996;-76
2022/01/20 14:19:59;;;;;;;4.23;1.77;;;;;;;0.86;77.75;99946.06;5097590;57;1133040;-75
2022/01/20 14:25:06;;;;;;;42.77;27.07;;;;;;;0.64;78.82;99950.94;5115966;57;1132809;-76
2022/01/20 14:30:13;;;;;;;29.10;10.20;;;;;;;0.57;81.51;99969.07;5077302;57;1137026;-76
2022/01/20 14:35:20;;;;;;;6.20;1.57;;;;;;;0.50;83.23;99970.70;5073467;57;1137049;-75
2022/01/20 14:40:26;;;;;;;10.10;5.13;;;;;;;0.49;84.38;99984.16;5095309;57;1132770;-78
2022/01/20 14:45:32;;;;;;;12.90;4.80;;;;;;;0.51;86.13;100001.02;5051111;57;1135192;-74
2022/01/20 14:50:37;;;;;;;7.17;2.20;;;;;;;0.52;87.36;100007.91;5053540;58;1137054;-77
2022/01/20 14:55:43;;;;;;;5.37;2.40;;;;;;;0.51;86.49;100014.02;5095280;57;1135068;-76
2022/01/20 15:00:49;;;;;;;8.30;3.30;;;;;;;0.56;87.83;100010.77;5055155;57;1134874;-75
2022/01/20 15:05:54;;;;;;;12.07;2.97;;;;;;;0.51;90.30;100033.08;5100901;57;1134986;-75
2022/01/20 15:11:01;;;;;;;7.70;2.47;;;;;;;0.51;90.30;100033.08;5073936;57;1136991;-76
2022/01/20 15:16:07;;;;;;;11.10;2.37;;;;;;;0.47;91.87;100047.58;5048828;58;1134790;-77
2022/01/20 15:21:14;;;;;;;28.73;11.20;;;;;;;0.39;92.08;100054.88;5106002;57;1137180;-75
2022/01/20 15:26:20;;;;;;;48.87;20.53;;;;;;;0.36;91.88;100070.16;5097161;57;1139037;-77
2022/01/20 15:31:30;;;;;;;4.57;2.40;;;;;;;0.29;92.56;100070.05;5105077;57;1138961;-77
2022/01/20 15:36:37;;;;;;;14.80;4.80;;;;;;;0.23;93.33;100090.65;5098392;57;1135001;-76
2022/01/20 15:41:43;;;;;;;15.80;3.77;;;;;;;0.19;94.55;100108.58;5132301;57;1136893;-77
2022/01/20 15:46:49;;;;;;;12.60;4.27;;;;;;;0.08;95.27;100111.24;5132392;57;1137013;-76
2022/01/20 15:51:55;;;;;;;48.00;9.27;;;;;;;-0.02;96.26;100121.19;5130527;57;1136989;-78
2022/01/20 15:57:01;;;;;;;11.93;3.83;;;;;;;-0.06;96.66;100132.61;5090530;57;1139156;-75
2022/01/20 16:02:08;;;;;;;40.38;8.33;;;;;;;-0.13;96.43;100126.80;5131729;57;1139206;-77
2022/01/20 16:07:13;;;;;;;9.60;3.53;;;;;;;-0.21;96.30;100117.17;5131540;57;1139024;-77
2022/01/20 16:12:19;;;;;;;49.90;12.97;;;;;;;-0.27;95.80;100146.44;5131661;57;1137024;-76
2022/01/20 16:17:25;;;;;;;39.33;11.97;;;;;;;-0.31;94.83;100140.99;5111836;57;1141052;-76
2022/01/20 16:22:31;;;;;;;7.93;2.80;;;;;;;-0.37;94.06;100144.66;5122282;56;1141174;-75
2022/01/20 16:27:37;;;;;;;9.83;5.17;;;;;;;-0.33;92.02;100154.49;5097273;57;1136955;-75
2022/01/20 16:32:43;;;;;;;10.70;4.40;;;;;;;-0.27;91.70;100156.38;5092855;57;1137207;-76
2022/01/20 16:37:49;;;;;;;17.17;5.57;;;;;;;-0.21;90.66;100167.00;5071438;57;1139228;-76
2022/01/20 16:42:56;;;;;;;12.73;3.20;;;;;;;-0.17;90.01;100185.47;5037427;58;1139025;-73
2022/01/20 16:48:02;;;;;;;7.40;1.93;;;;;;;-0.18;88.72;100173.38;5039542;57;1139230;-77
2022/01/20 16:53:07;;;;;;;9.43;3.43;;;;;;;-0.17;87.96;100182.87;5062402;57;1137004;-77
2022/01/20 16:58:13;;;;;;;4.50;2.07;;;;;;;-0.18;87.74;100185.92;5053042;57;1136966;-76
2022/01/20 17:03:18;;;;;;;10.00;2.65;;;;;;;-0.22;88.42;100192.14;5078875;57;1137062;-74
2022/01/20 17:08:24;;;;;;;7.47;2.40;;;;;;;-0.27;88.35;100210.10;5100117;57;1137211;-74
2022/01/20 17:13:30;;;;;;;5.60;2.63;;;;;;;-0.30;88.90;100214.95;5102597;57;1134856;-77
2022/01/20 17:18:37;;;;;;;4.50;1.90;;;;;;;-0.33;88.72;100218.15;5096503;57;1134756;-76
2022/01/20 17:23:43;;;;;;;7.57;2.77;;;;;;;-0.37;89.45;100228.65;5116061;57;1135049;-75
2022/01/20 17:28:49;;;;;;;26.77;5.93;;;;;;;-0.45;90.29;100224.17;5119870;56;1134884;-76
2022/01/20 17:33:54;;;;;;;206.03;53.27;;;;;;;-0.46;91.22;100240.66;5139501;57;1136931;-75
2022/01/20 17:39:00;;;;;;;15.87;3.80;;;;;;;-0.50;91.51;100242.16;5147344;57;1141145;-76
2022/01/20 17:44:07;;;;;;;17.63;4.50;;;;;;;-0.54;91.51;100243.16;5146902;57;1136972;-76
2022/01/20 17:49:13;;;;;;;7.93;3.80;;;;;;;-0.57;91.83;100259.70;5145775;57;1137251;-75
2022/01/20 17:54:18;;;;;;;7.87;3.30;;;;;;;-0.62;91.40;100264.23;5144953;57;1134839;-74
2022/01/20 17:59:25;;;;;;;11.60;3.73;;;;;;;-0.68;91.19;100273.98;5147281;57;1134885;-74
2022/01/20 18:04:31;;;;;;;15.20;3.90;;;;;;;-0.77;91.40;100277.31;5147868;57;1137019;-77
2022/01/20 18:09:37;;;;;;;5.97;1.87;;;;;;;-0.82;91.56;100289.59;5126057;57;1136964;-77
2022/01/20 18:14:44;;;;;;;6.40;2.65;;;;;;;-0.87;91.84;100285.00;5107003;57;1134373;-75
2022/01/20 18:19:50;;;;;;;15.93;3.80;;;;;;;-0.91;92.25;100283.41;5136436;57;1134839;-75
2022/01/20 18:24:56;;;;;;;9.77;1.43;;;;;;;-0.96;92.89;100293.56;5135500;57;1137208;-76
2022/01/20 18:30:02;;;;;;;6.60;2.50;;;;;;;-1.03;93.36;100296.80;5135798;57;1135155;-77
2022/01/20 18:35:09;;;;;;;5.60;2.05;;;;;;;-1.08;94.03;100301.33;5104561;56;1134933;-76
2022/01/20 18:40:16;;;;;;;3.37;1.83;;;;;;;-1.14;94.33;100298.47;5132636;56;1132962;-76
2022/01/20 18:45:23;;;;;;;14.30;2.77;;;;;;;-1.17;95.04;100308.09;5132846;57;1137483;-73
2022/01/20 18:50:29;;;;;;;22.77;4.13;;;;;;;-1.22;95.40;100308.23;5132752;57;1138937;-70
2022/01/20 18:55:35;;;;;;;2.13;1.20;;;;;;;-1.24;95.49;100319.59;5137955;57;1138901;-76
2022/01/20 19:00:41;;;;;;;5.42;2.40;;;;;;;-1.32;96.04;100322.42;5096835;57;1136874;-74
2022/01/20 19:05:46;;;;;;;12.47;3.00;;;;;;;-1.34;95.91;100321.61;5132411;57;1137112;-74
2022/01/20 19:10:53;;;;;;;6.97;1.90;;;;;;;-1.36;96.31;100329.89;5107154;57;1139071;-74
2022/01/20 19:16:01;;;;;;;4.77;2.07;;;;;;;-1.42;96.66;100333.55;5116098;57;1136943;-72
2022/01/20 19:21:07;;;;;;;7.73;2.47;;;;;;;-1.49;97.06;100343.70;5041095;57;1137260;-74
2022/01/20 19:26:13;;;;;;;9.87;2.87;;;;;;;-1.54;97.18;100340.87;5115503;57;1137018;-74
2022/01/20 19:31:20;;;;;;;12.33;5.10;;;;;;;-1.59;97.92;100340.15;5084860;56;1136937;-69
2022/01/20 19:36:25;;;;;;;10.63;2.90;;;;;;;-1.62;98.20;100352.75;4985774;59;1139113;-73
2022/01/20 19:41:31;;;;;;;11.30;5.70;;;;;;;-1.65;98.77;100355.87;5121697;56;1139028;-71
2022/01/20 19:46:36;;;;;;;8.67;2.57;;;;;;;-1.68;98.81;100364.59;5139680;57;1139089;-73
2022/01/20 19:51:42;;;;;;;9.27;2.40;;;;;;;-1.72;99.09;100377.72;5131353;56;1136984;-76
2022/01/20 19:56:48;;;;;;;4.60;2.30;;;;;;;-1.79;100.00;100379.19;5125204;57;1137242;-78
2022/01/20 20:02:01;;;;;;;5.63;2.13;;;;;;;-1.81;99.82;100381.41;5131425;57;1138949;-79
2022/01/20 20:07:10;;;;;;;6.72;1.82;;;;;;;-1.83;100.00;100380.16;5131529;57;1136914;-80
2022/01/20 20:12:17;;;;;;;9.50;1.20;;;;;;;-1.87;100.00;100383.75;5121521;57;1139017;-74
2022/01/20 20:17:23;;;;;;;6.27;2.10;;;;;;;-1.86;100.00;100398.86;5113340;57;1139001;-79
2022/01/20 20:22:29;;;;;;;17.03;4.87;;;;;;;-1.87;99.96;100405.78;5100755;57;1139041;-76
2022/01/20 20:27:35;;;;;;;6.25;3.05;;;;;;;-1.86;99.81;100420.89;5048857;58;1139066;-71
2022/01/20 20:32:40;;;;;;;5.07;2.73;;;;;;;-1.87;99.78;100436.89;5078762;57;1137181;-77
2022/01/20 20:37:46;;;;;;;7.97;3.13;;;;;;;-1.86;99.96;100440.33;5088563;57;1137176;-78
2022/01/20 20:42:51;;;;;;;11.87;3.43;;;;;;;-1.88;99.92;100438.22;5076305;57;1137142;-72
2022/01/20 20:47:58;;;;;;;13.90;4.47;;;;;;;-1.92;100.00;100453.45;5061950;57;1139042;-79
2022/01/20 20:53:03;;;;;;;6.50;2.17;;;;;;;-1.93;100.00;100462.97;5074104;57;1141249;-78
2022/01/20 20:58:10;;;;;;;3.77;2.70;;;;;;;-1.94;100.00;100475.52;5053520;58;1139255;-73
2022/01/20 21:03:15;;;;;;;11.33;3.97;;;;;;;-1.95;100.00;100483.33;5079246;58;1139262;-72
2022/01/20 21:08:21;;;;;;;7.83;1.57;;;;;;;-1.93;100.00;100485.44;5082878;57;1141047;-76
2022/01/20 21:13:27;;;;;;;5.17;2.90;;;;;;;-1.98;100.00;100493.33;5047060;58;1139150;-80
2022/01/20 21:18:32;;;;;;;21.40;3.40;;;;;;;-2.00;100.00;100508.09;5114471;57;1139085;-74
2022/01/20 21:23:45;;;;;;;9.90;2.70;;;;;;;-2.02;100.00;100515.05;5134037;56;1141519;-71
2022/01/20 21:28:47;;;;;;;6.87;2.30;;;;;;;-2.04;100.00;100512.95;5132835;56;1139045;-72
2022/01/20 21:33:53;;;;;;;11.37;2.93;;;;;;;-2.08;100.00;100509.17;5133674;57;1139346;-73
2022/01/20 21:39:00;;;;;;;2.80;1.60;;;;;;;-2.12;100.00;100515.72;5083489;57;1141037;-71
2022/01/20 21:44:06;;;;;;;16.40;4.40;;;;;;;-2.15;100.00;100512.38;5063196;57;1139050;-73
2022/01/20 21:49:13;;;;;;;8.57;3.60;;;;;;;-2.18;100.00;100524.96;5094903;57;1141413;-72
2022/01/20 21:54:18;;;;;;;11.90;2.87;;;;;;;-2.20;100.00;100531.06;5067796;57;1138927;-73
2022/01/20 21:59:24;;;;;;;11.20;3.03;;;;;;;-2.22;100.00;100536.73;5102901;57;1139362;-72
2022/01/20 22:04:30;;;;;;;37.20;12.67;;;;;;;-2.23;100.00;100544.09;5112671;57;1139044;-70
2022/01/20 22:09:36;;;;;;;3.17;1.67;;;;;;;-2.23;100.00;100546.23;5108513;57;1141508;-70
2022/01/20 22:14:42;;;;;;;4.57;2.43;;;;;;;-2.25;100.00;100539.39;5102666;57;1136991;-72
2022/01/20 22:19:48;;;;;;;6.30;2.60;;;;;;;-2.27;100.00;100547.19;5095089;57;1136889;-72
2022/01/20 22:24:53;;;;;;;17.17;2.60;;;;;;;-2.30;99.93;100555.51;5092134;57;1137126;-72
2022/01/20 22:30:00;;;;;;;12.50;4.73;;;;;;;-2.33;99.83;100552.55;5107552;57;1136965;-72
2022/01/20 22:35:07;;;;;;;7.07;3.50;;;;;;;-2.33;99.51;100555.13;5069694;57;1137316;-70
2022/01/20 22:40:14;;;;;;;3.50;1.67;;;;;;;-2.35;99.10;100576.33;5097682;57;1134785;-72
2022/01/20 22:45:21;;;;;;;20.53;5.13;;;;;;;-2.36;98.95;100575.07;5093960;57;1134901;-71
2022/01/20 22:50:27;;;;;;;2.63;1.27;;;;;;;-2.38;98.71;100581.58;5086482;57;1136954;-72
2022/01/20 22:55:33;;;;;;;5.47;1.30;;;;;;;-2.43;98.42;100583.86;5105663;57;1134982;-71
2022/01/20 23:00:43;;;;;;;5.57;1.67;;;;;;;-2.44;98.31;100584.77;5110139;57;1135135;-72
2022/01/20 23:05:51;;;;;;;6.40;2.77;;;;;;;-2.46;98.15;100586.10;5065316;57;1134924;-73
2022/01/20 23:10:57;;;;;;;5.25;1.67;;;;;;;-2.48;98.08;100596.94;5089774;57;1135166;-72
2022/01/20 23:17:01;;;;;;;4.57;2.50;;;;;;;-2.52;97.56;100595.30;5065288;57;1135216;-71
2022/01/20 23:21:10;;;;;;;9.70;2.70;;;;;;;-2.51;97.06;100609.50;5068079;58;1133118;-73
2022/01/20 23:26:21;;;;;;;4.90;2.60;;;;;;;-2.52;96.79;100614.27;5080883;57;1132890;-71
2022/01/20 23:31:30;;;;;;;7.73;3.07;;;;;;;-2.51;95.62;100621.59;5081009;57;1136905;-71
2022/01/20 23:36:39;;;;;;;3.98;1.52;;;;;;;-2.50;95.31;100634.95;5078402;57;1137090;-71
2022/01/20 23:41:50;;;;;;;7.40;2.43;;;;;;;-2.52;94.27;100636.28;5072219;57;1136966;-73
2022/01/20 23:52:18;;;;;;;3.40;1.10;;;;;;;-2.51;93.12;100638.42;5081742;57;1136975;-70
2022/01/20 23:57:24;;;;;;;6.70;1.80;;;;;;;-2.54;92.56;100649.70;5142741;56;1136988;-73
